sensor_id;sensor_type;location;lat;lon;timestamp;P1;durP1;ratioP1;P2;durP2;ratioP2
33672;SDS011;20011;51.510;9.942;2024-03-23T00:53:52;5.40;;;2.20;;
33672;SDS011;20011;51.510;9.942;2024-03-23T00:56:18;6.60;;;2.42;;
33672;SDS011;20011;51.510;9.942;2024-03-23T00:58:44;7.65;;;2.50;;
33672;SDS011;20011;51.510;9.942;2024-03-23T01:01:10;5.88;;;2.60;;
33672;SDS011;20011;51.510;9.942;2024-03-23T01:03:36;8.45;;;2.50;;
33672;SDS011;20011;51.510;9.942;2024-03-23T01:06:02;6.45;;;2.53;;
33672;SDS011;20011;51.510;9.942;2024-03-23T01:08:32;8.52;;;2.63;;
33672;SDS011;20011;51.510;9.942;2024-03-23T01:10:58;6.13;;;2.60;;
33672;SDS011;20011;51.510;9.942;2024-03-23T01:13:25;10.95;;;3.30;;
33672;SDS011;20011;51.510;9.942;2024-03-23T01:15:53;7.78;;;2.55;;
33672;SDS011;20011;51.510;9.942;2024-03-23T01:18:21;9.43;;;3.03;;
33672;SDS011;20011;51.510;9.942;2024-03-23T01:20:49;7.15;;;2.63;;
33672;SDS011;20011;51.510;9.942;2024-03-23T01:23:15;7.57;;;2.97;;
33672;SDS011;20011;51.510;9.942;2024-03-23T01:25:41;13.15;;;3.30;;
33672;SDS011;20011;51.510;9.942;2024-03-23T01:28:07;9.63;;;3.22;;
33672;SDS011;20011;51.510;9.942;2024-03-23T01:30:33;8.27;;;2.45;;
33672;SDS011;20011;51.510;9.942;2024-03-23T01:33:00;10.45;;;2.85;;
33672;SDS011;20011;51.510;9.942;2024-03-23T01:35:26;8.38;;;2.80;;
33672;SDS011;20011;51.510;9.942;2024-03-23T01:37:53;9.77;;;2.88;;
33672;SDS011;20011;51.510;9.942;2024-03-23T01:40:19;6.27;;;2.57;;
33672;SDS011;20011;51.510;9.942;2024-03-23T01:45:23;6.95;;;2.40;;
33672;SDS011;20011;51.510;9.942;2024-03-23T01:47:53;14.75;;;3.40;;
33672;SDS011;20011;51.510;9.942;2024-03-23T01:50:22;6.30;;;2.87;;
33672;SDS011;20011;51.510;9.942;2024-03-23T01:52:49;8.52;;;2.75;;
33672;SDS011;20011;51.510;9.942;2024-03-23T01:55:15;8.43;;;3.10;;
33672;SDS011;20011;51.510;9.942;2024-03-23T01:57:41;9.75;;;3.00;;
33672;SDS011;20011;51.510;9.942;2024-03-23T02:00:07;9.40;;;2.80;;
33672;SDS011;20011;51.510;9.942;2024-03-23T02:02:44;8.93;;;2.72;;
33672;SDS011;20011;51.510;9.942;2024-03-23T02:05:14;8.20;;;3.30;;
33672;SDS011;20011;51.510;9.942;2024-03-23T02:07:40;8.30;;;3.47;;
33672;SDS011;20011;51.510;9.942;2024-03-23T02:10:08;10.60;;;3.25;;
33672;SDS011;20011;51.510;9.942;2024-03-23T02:12:35;12.60;;;3.47;;
33672;SDS011;20011;51.510;9.942;2024-03-23T02:15:01;13.18;;;3.97;;
33672;SDS011;20011;51.510;9.942;2024-03-23T02:17:29;9.75;;;3.22;;
33672;SDS011;20011;51.510;9.942;2024-03-23T02:19:56;10.75;;;3.15;;
33672;SDS011;20011;51.510;9.942;2024-03-23T02:22:22;7.07;;;3.30;;
33672;SDS011;20011;51.510;9.942;2024-03-23T02:24:48;13.13;;;3.47;;
33672;SDS011;20011;51.510;9.942;2024-03-23T02:27:14;9.88;;;3.17;;
33672;SDS011;20011;51.510;9.942;2024-03-23T02:29:40;12.18;;;4.18;;
33672;SDS011;20011;51.510;9.942;2024-03-23T02:32:06;9.30;;;3.60;;
33672;SDS011;20011;51.510;9.942;2024-03-23T02:34:34;12.27;;;3.70;;
33672;SDS011;20011;51.510;9.942;2024-03-23T02:37:01;13.77;;;4.23;;
33672;SDS011;20011;51.510;9.942;2024-03-23T02:39:27;12.27;;;3.80;;
33672;SDS011;20011;51.510;9.942;2024-03-23T02:41:53;11.40;;;3.90;;
33672;SDS011;20011;51.510;9.942;2024-03-23T02:44:19;11.02;;;4.30;;
33672;SDS011;20011;51.510;9.942;2024-03-23T02:46:45;10.45;;;3.60;;
33672;SDS011;20011;51.510;9.942;2024-03-23T02:49:11;8.90;;;3.50;;
33672;SDS011;20011;51.510;9.942;2024-03-23T02:51:37;13.55;;;4.90;;
33672;SDS011;20011;51.510;9.942;2024-03-23T02:54:03;12.07;;;4.70;;
33672;SDS011;20011;51.510;9.942;2024-03-23T02:56:29;12.37;;;4.77;;
33672;SDS011;20011;51.510;9.942;2024-03-23T02:58:55;9.73;;;4.38;;
33672;SDS011;20011;51.510;9.942;2024-03-23T03:01:21;12.65;;;5.65;;
33672;SDS011;20011;51.510;9.942;2024-03-23T03:03:47;12.32;;;4.90;;
33672;SDS011;20011;51.510;9.942;2024-03-23T03:06:22;10.02;;;4.82;;
33672;SDS011;20011;51.510;9.942;2024-03-23T03:08:48;10.27;;;4.10;;
33672;SDS011;20011;51.510;9.942;2024-03-23T03:11:14;10.50;;;3.80;;
33672;SDS011;20011;51.510;9.942;2024-03-23T03:13:40;10.07;;;4.10;;
33672;SDS011;20011;51.510;9.942;2024-03-23T03:16:10;10.60;;;4.23;;
33672;SDS011;20011;51.510;9.942;2024-03-23T03:18:36;12.82;;;3.78;;
33672;SDS011;20011;51.510;9.942;2024-03-23T03:21:03;7.00;;;2.53;;
33672;SDS011;20011;51.510;9.942;2024-03-23T03:23:30;6.40;;;2.65;;
33672;SDS011;20011;51.510;9.942;2024-03-23T03:25:56;7.25;;;3.03;;
33672;SDS011;20011;51.510;9.942;2024-03-23T03:28:23;8.77;;;3.03;;
33672;SDS011;20011;51.510;9.942;2024-03-23T03:30:49;6.53;;;2.92;;
33672;SDS011;20011;51.510;9.942;2024-03-23T03:33:15;7.60;;;3.00;;
33672;SDS011;20011;51.510;9.942;2024-03-23T03:35:42;7.32;;;3.10;;
33672;SDS011;20011;51.510;9.942;2024-03-23T03:38:08;9.27;;;3.00;;
33672;SDS011;20011;51.510;9.942;2024-03-23T03:40:35;5.35;;;2.90;;
33672;SDS011;20011;51.510;9.942;2024-03-23T03:43:01;7.20;;;3.10;;
33672;SDS011;20011;51.510;9.942;2024-03-23T03:45:27;9.00;;;3.03;;
33672;SDS011;20011;51.510;9.942;2024-03-23T03:47:53;6.18;;;2.88;;
33672;SDS011;20011;51.510;9.942;2024-03-23T03:50:19;7.95;;;3.60;;
33672;SDS011;20011;51.510;9.942;2024-03-23T03:52:47;8.75;;;2.88;;
33672;SDS011;20011;51.510;9.942;2024-03-23T03:55:13;8.87;;;3.00;;
33672;SDS011;20011;51.510;9.942;2024-03-23T03:57:40;7.13;;;2.83;;
33672;SDS011;20011;51.510;9.942;2024-03-23T04:00:06;9.18;;;3.20;;
33672;SDS011;20011;51.510;9.942;2024-03-23T04:02:39;5.53;;;2.10;;
33672;SDS011;20011;51.510;9.942;2024-03-23T04:05:05;7.45;;;1.88;;
33672;SDS011;20011;51.510;9.942;2024-03-23T04:07:33;4.55;;;1.75;;
33672;SDS011;20011;51.510;9.942;2024-03-23T04:09:59;5.03;;;1.48;;
33672;SDS011;20011;51.510;9.942;2024-03-23T04:12:25;5.82;;;1.70;;
33672;SDS011;20011;51.510;9.942;2024-03-23T04:14:51;7.55;;;1.60;;
33672;SDS011;20011;51.510;9.942;2024-03-23T04:17:17;4.93;;;1.67;;
33672;SDS011;20011;51.510;9.942;2024-03-23T04:19:44;6.22;;;1.63;;
33672;SDS011;20011;51.510;9.942;2024-03-23T04:22:10;4.57;;;2.03;;
33672;SDS011;20011;51.510;9.942;2024-03-23T04:24:36;5.45;;;1.63;;
33672;SDS011;20011;51.510;9.942;2024-03-23T04:27:02;6.00;;;1.60;;
33672;SDS011;20011;51.510;9.942;2024-03-23T04:29:28;4.63;;;1.50;;
33672;SDS011;20011;51.510;9.942;2024-03-23T04:31:54;3.90;;;1.42;;
33672;SDS011;20011;51.510;9.942;2024-03-23T04:34:21;7.53;;;2.00;;
33672;SDS011;20011;51.510;9.942;2024-03-23T04:36:48;5.43;;;1.77;;
33672;SDS011;20011;51.510;9.942;2024-03-23T04:39:14;6.38;;;2.35;;
33672;SDS011;20011;51.510;9.942;2024-03-23T04:41:40;6.95;;;2.42;;
33672;SDS011;20011;51.510;9.942;2024-03-23T04:44:06;6.10;;;2.38;;
33672;SDS011;20011;51.510;9.942;2024-03-23T04:46:32;5.88;;;2.42;;
33672;SDS011;20011;51.510;9.942;2024-03-23T04:48:58;7.18;;;2.50;;
33672;SDS011;20011;51.510;9.942;2024-03-23T04:51:24;5.13;;;2.20;;
33672;SDS011;20011;51.510;9.942;2024-03-23T04:53:51;5.60;;;2.22;;
33672;SDS011;20011;51.510;9.942;2024-03-23T04:56:17;4.85;;;1.98;;
33672;SDS011;20011;51.510;9.942;2024-03-23T04:58:43;5.18;;;1.73;;
33672;SDS011;20011;51.510;9.942;2024-03-23T05:01:10;3.13;;;1.20;;
33672;SDS011;20011;51.510;9.942;2024-03-23T05:03:36;3.65;;;1.20;;
33672;SDS011;20011;51.510;9.942;2024-03-23T05:06:02;3.20;;;1.40;;
33672;SDS011;20011;51.510;9.942;2024-03-23T05:08:29;4.35;;;1.50;;
33672;SDS011;20011;51.510;9.942;2024-03-23T05:10:55;5.10;;;1.50;;
33672;SDS011;20011;51.510;9.942;2024-03-23T05:13:21;2.65;;;1.17;;
33672;SDS011;20011;51.510;9.942;2024-03-23T05:15:52;4.05;;;1.50;;
33672;SDS011;20011;51.510;9.942;2024-03-23T05:18:18;3.15;;;1.35;;
33672;SDS011;20011;51.510;9.942;2024-03-23T05:20:45;4.60;;;1.77;;
33672;SDS011;20011;51.510;9.942;2024-03-23T05:23:11;2.95;;;1.25;;
33672;SDS011;20011;51.510;9.942;2024-03-23T05:25:37;3.03;;;1.25;;
33672;SDS011;20011;51.510;9.942;2024-03-23T05:28:05;3.33;;;1.10;;
33672;SDS011;20011;51.510;9.942;2024-03-23T05:30:32;6.18;;;1.38;;
33672;SDS011;20011;51.510;9.942;2024-03-23T05:32:58;4.15;;;1.80;;
33672;SDS011;20011;51.510;9.942;2024-03-23T05:35:23;4.87;;;1.50;;
33672;SDS011;20011;51.510;9.942;2024-03-23T05:37:49;3.37;;;1.43;;
33672;SDS011;20011;51.510;9.942;2024-03-23T05:40:15;5.25;;;1.30;;
33672;SDS011;20011;51.510;9.942;2024-03-23T05:42:41;4.10;;;1.80;;
33672;SDS011;20011;51.510;9.942;2024-03-23T05:45:07;2.75;;;1.40;;
33672;SDS011;20011;51.510;9.942;2024-03-23T05:47:34;3.35;;;1.60;;
33672;SDS011;20011;51.510;9.942;2024-03-23T05:50:00;2.47;;;1.20;;
33672;SDS011;20011;51.510;9.942;2024-03-23T05:52:27;3.55;;;1.00;;
33672;SDS011;20011;51.510;9.942;2024-03-23T05:54:53;1.95;;;1.17;;
33672;SDS011;20011;51.510;9.942;2024-03-23T05:57:19;2.50;;;1.13;;
33672;SDS011;20011;51.510;9.942;2024-03-23T05:59:45;3.33;;;1.10;;
33672;SDS011;20011;51.510;9.942;2024-03-23T06:02:11;4.88;;;1.67;;
33672;SDS011;20011;51.510;9.942;2024-03-23T06:04:37;2.15;;;1.10;;
33672;SDS011;20011;51.510;9.942;2024-03-23T06:07:04;2.70;;;1.17;;
33672;SDS011;20011;51.510;9.942;2024-03-23T06:09:31;3.17;;;1.30;;
33672;SDS011;20011;51.510;9.942;2024-03-23T06:11:57;3.03;;;1.50;;
33672;SDS011;20011;51.510;9.942;2024-03-23T06:14:23;3.50;;;1.45;;
33672;SDS011;20011;51.510;9.942;2024-03-23T06:16:49;1.90;;;1.20;;
33672;SDS011;20011;51.510;9.942;2024-03-23T06:19:15;3.60;;;1.75;;
33672;SDS011;20011;51.510;9.942;2024-03-23T06:21:44;3.47;;;1.33;;
33672;SDS011;20011;51.510;9.942;2024-03-23T06:24:11;3.55;;;1.75;;
33672;SDS011;20011;51.510;9.942;2024-03-23T06:26:38;2.67;;;1.80;;
33672;SDS011;20011;51.510;9.942;2024-03-23T06:29:04;2.38;;;1.70;;
33672;SDS011;20011;51.510;9.942;2024-03-23T06:31:30;4.03;;;1.80;;
33672;SDS011;20011;51.510;9.942;2024-03-23T06:33:57;2.97;;;1.58;;
33672;SDS011;20011;51.510;9.942;2024-03-23T06:36:27;4.05;;;1.50;;
33672;SDS011;20011;51.510;9.942;2024-03-23T06:38:56;4.00;;;1.88;;
33672;SDS011;20011;51.510;9.942;2024-03-23T06:41:22;4.07;;;1.58;;
33672;SDS011;20011;51.510;9.942;2024-03-23T06:43:48;2.63;;;1.43;;
33672;SDS011;20011;51.510;9.942;2024-03-23T06:46:14;3.30;;;1.47;;
33672;SDS011;20011;51.510;9.942;2024-03-23T06:48:40;2.87;;;1.53;;
33672;SDS011;20011;51.510;9.942;2024-03-23T06:51:06;4.27;;;1.63;;
33672;SDS011;20011;51.510;9.942;2024-03-23T06:53:32;3.37;;;1.60;;
33672;SDS011;20011;51.510;9.942;2024-03-23T06:55:58;2.20;;;1.55;;
33672;SDS011;20011;51.510;9.942;2024-03-23T06:58:24;4.15;;;1.45;;
33672;SDS011;20011;51.510;9.942;2024-03-23T07:00:50;2.67;;;1.40;;
33672;SDS011;20011;51.510;9.942;2024-03-23T07:03:17;3.57;;;1.33;;
33672;SDS011;20011;51.510;9.942;2024-03-23T07:05:43;3.47;;;1.48;;
33672;SDS011;20011;51.510;9.942;2024-03-23T07:08:09;4.05;;;1.45;;
33672;SDS011;20011;51.510;9.942;2024-03-23T07:10:35;4.32;;;1.98;;
33672;SDS011;20011;51.510;9.942;2024-03-23T07:13:04;3.15;;;1.27;;
33672;SDS011;20011;51.510;9.942;2024-03-23T07:15:30;3.10;;;1.27;;
33672;SDS011;20011;51.510;9.942;2024-03-23T07:17:56;3.38;;;1.23;;
33672;SDS011;20011;51.510;9.942;2024-03-23T07:20:22;2.13;;;1.27;;
33672;SDS011;20011;51.510;9.942;2024-03-23T07:22:48;1.95;;;1.17;;
33672;SDS011;20011;51.510;9.942;2024-03-23T07:25:14;1.90;;;1.02;;
33672;SDS011;20011;51.510;9.942;2024-03-23T07:27:40;2.22;;;1.30;;
33672;SDS011;20011;51.510;9.942;2024-03-23T07:30:06;3.40;;;1.23;;
33672;SDS011;20011;51.510;9.942;2024-03-23T07:32:34;2.60;;;1.10;;
33672;SDS011;20011;51.510;9.942;2024-03-23T07:35:01;1.85;;;1.02;;
33672;SDS011;20011;51.510;9.942;2024-03-23T07:37:27;1.83;;;1.10;;
33672;SDS011;20011;51.510;9.942;2024-03-23T07:39:54;3.25;;;1.20;;
33672;SDS011;20011;51.510;9.942;2024-03-23T07:42:20;2.78;;;1.38;;
33672;SDS011;20011;51.510;9.942;2024-03-23T07:44:46;3.88;;;1.15;;
33672;SDS011;20011;51.510;9.942;2024-03-23T07:47:12;2.83;;;1.15;;
33672;SDS011;20011;51.510;9.942;2024-03-23T07:49:38;1.55;;;1.08;;
33672;SDS011;20011;51.510;9.942;2024-03-23T07:52:05;1.60;;;1.00;;
33672;SDS011;20011;51.510;9.942;2024-03-23T07:54:31;1.88;;;1.00;;
33672;SDS011;20011;51.510;9.942;2024-03-23T07:56:57;3.92;;;1.02;;
33672;SDS011;20011;51.510;9.942;2024-03-23T07:59:23;1.20;;;1.02;;
33672;SDS011;20011;51.510;9.942;2024-03-23T08:01:49;3.35;;;1.20;;
33672;SDS011;20011;51.510;9.942;2024-03-23T08:04:15;4.68;;;1.40;;
33672;SDS011;20011;51.510;9.942;2024-03-23T08:06:41;2.28;;;1.13;;
33672;SDS011;20011;51.510;9.942;2024-03-23T08:09:07;4.15;;;1.10;;
33672;SDS011;20011;51.510;9.942;2024-03-23T08:11:32;3.83;;;1.20;;
33672;SDS011;20011;51.510;9.942;2024-03-23T08:14:00;4.90;;;1.10;;
33672;SDS011;20011;51.510;9.942;2024-03-23T08:16:26;3.38;;;1.00;;
33672;SDS011;20011;51.510;9.942;2024-03-23T08:18:53;3.97;;;1.45;;
33672;SDS011;20011;51.510;9.942;2024-03-23T08:21:21;4.65;;;1.80;;
33672;SDS011;20011;51.510;9.942;2024-03-23T08:23:48;7.20;;;1.58;;
33672;SDS011;20011;51.510;9.942;2024-03-23T08:26:15;4.38;;;1.40;;
33672;SDS011;20011;51.510;9.942;2024-03-23T08:28:42;7.53;;;1.45;;
33672;SDS011;20011;51.510;9.942;2024-03-23T08:31:09;4.68;;;1.20;;
33672;SDS011;20011;51.510;9.942;2024-03-23T08:33:36;5.97;;;1.60;;
33672;SDS011;20011;51.510;9.942;2024-03-23T08:36:04;9.07;;;1.35;;
33672;SDS011;20011;51.510;9.942;2024-03-23T08:38:32;7.32;;;1.52;;
33672;SDS011;20011;51.510;9.942;2024-03-23T08:41:02;7.78;;;1.95;;
33672;SDS011;20011;51.510;9.942;2024-03-23T08:43:30;5.95;;;1.70;;
33672;SDS011;20011;51.510;9.942;2024-03-23T08:46:05;6.70;;;1.42;;
33672;SDS011;20011;51.510;9.942;2024-03-23T08:48:38;5.22;;;1.50;;
33672;SDS011;20011;51.510;9.942;2024-03-23T08:51:07;9.37;;;2.30;;
33672;SDS011;20011;51.510;9.942;2024-03-23T08:53:34;7.97;;;2.35;;
33672;SDS011;20011;51.510;9.942;2024-03-23T08:56:01;10.63;;;1.95;;
33672;SDS011;20011;51.510;9.942;2024-03-23T08:58:28;4.72;;;1.58;;
33672;SDS011;20011;51.510;9.942;2024-03-23T09:00:55;8.07;;;2.20;;
33672;SDS011;20011;51.510;9.942;2024-03-23T09:03:28;5.70;;;2.10;;
33672;SDS011;20011;51.510;9.942;2024-03-23T09:05:54;7.75;;;1.98;;
33672;SDS011;20011;51.510;9.942;2024-03-23T09:08:20;9.65;;;2.00;;
33672;SDS011;20011;51.510;9.942;2024-03-23T09:10:47;6.97;;;2.15;;
33672;SDS011;20011;51.510;9.942;2024-03-23T09:13:13;7.78;;;2.72;;
33672;SDS011;20011;51.510;9.942;2024-03-23T09:15:47;10.95;;;2.85;;
33672;SDS011;20011;51.510;9.942;2024-03-23T09:18:14;14.13;;;2.85;;
33672;SDS011;20011;51.510;9.942;2024-03-23T09:20:40;10.95;;;3.33;;
33672;SDS011;20011;51.510;9.942;2024-03-23T09:23:07;12.75;;;3.58;;
33672;SDS011;20011;51.510;9.942;2024-03-23T09:25:36;11.40;;;3.13;;
33672;SDS011;20011;51.510;9.942;2024-03-23T09:28:03;17.90;;;4.22;;
33672;SDS011;20011;51.510;9.942;2024-03-23T09:30:30;9.53;;;3.87;;
33672;SDS011;20011;51.510;9.942;2024-03-23T09:32:59;13.50;;;4.73;;
33672;SDS011;20011;51.510;9.942;2024-03-23T09:35:26;13.32;;;4.43;;
33672;SDS011;20011;51.510;9.942;2024-03-23T09:37:52;12.52;;;4.55;;
33672;SDS011;20011;51.510;9.942;2024-03-23T09:40:19;14.48;;;4.60;;
33672;SDS011;20011;51.510;9.942;2024-03-23T09:42:49;16.95;;;5.32;;
33672;SDS011;20011;51.510;9.942;2024-03-23T09:45:17;14.57;;;5.15;;
33672;SDS011;20011;51.510;9.942;2024-03-23T09:47:46;20.05;;;5.75;;
33672;SDS011;20011;51.510;9.942;2024-03-23T09:50:13;20.08;;;6.10;;
33672;SDS011;20011;51.510;9.942;2024-03-23T09:52:39;19.63;;;5.57;;
33672;SDS011;20011;51.510;9.942;2024-03-23T09:55:08;19.17;;;5.72;;
33672;SDS011;20011;51.510;9.942;2024-03-23T09:57:34;15.88;;;6.25;;
33672;SDS011;20011;51.510;9.942;2024-03-23T10:00:01;21.40;;;5.90;;
33672;SDS011;20011;51.510;9.942;2024-03-23T10:02:27;17.43;;;6.53;;
33672;SDS011;20011;51.510;9.942;2024-03-23T10:04:54;17.80;;;6.22;;
33672;SDS011;20011;51.510;9.942;2024-03-23T10:07:20;19.83;;;6.65;;
33672;SDS011;20011;51.510;9.942;2024-03-23T10:09:47;21.17;;;7.60;;
33672;SDS011;20011;51.510;9.942;2024-03-23T10:12:15;18.63;;;7.07;;
33672;SDS011;20011;51.510;9.942;2024-03-23T10:14:42;19.03;;;7.10;;
33672;SDS011;20011;51.510;9.942;2024-03-23T10:17:21;19.83;;;7.57;;
33672;SDS011;20011;51.510;9.942;2024-03-23T10:19:51;16.65;;;7.00;;
33672;SDS011;20011;51.510;9.942;2024-03-23T10:22:18;18.48;;;7.93;;
33672;SDS011;20011;51.510;9.942;2024-03-23T10:24:46;18.02;;;7.28;;
33672;SDS011;20011;51.510;9.942;2024-03-23T10:27:15;16.70;;;7.05;;
33672;SDS011;20011;51.510;9.942;2024-03-23T10:29:43;15.73;;;5.53;;
33672;SDS011;20011;51.510;9.942;2024-03-23T10:32:13;13.02;;;5.00;;
33672;SDS011;20011;51.510;9.942;2024-03-23T10:34:40;9.55;;;3.95;;
33672;SDS011;20011;51.510;9.942;2024-03-23T10:37:07;9.52;;;3.75;;
33672;SDS011;20011;51.510;9.942;2024-03-23T10:39:34;11.23;;;4.00;;
33672;SDS011;20011;51.510;9.942;2024-03-23T10:42:07;9.90;;;4.25;;
33672;SDS011;20011;51.510;9.942;2024-03-23T10:44:35;11.27;;;4.57;;
33672;SDS011;20011;51.510;9.942;2024-03-23T10:47:02;10.85;;;4.95;;
33672;SDS011;20011;51.510;9.942;2024-03-23T10:49:29;10.18;;;5.10;;
33672;SDS011;20011;51.510;9.942;2024-03-23T10:51:57;11.87;;;5.80;;
33672;SDS011;20011;51.510;9.942;2024-03-23T10:54:25;16.02;;;6.10;;
33672;SDS011;20011;51.510;9.942;2024-03-23T10:57:04;12.52;;;5.55;;
33672;SDS011;20011;51.510;9.942;2024-03-23T10:59:35;12.70;;;6.20;;
33672;SDS011;20011;51.510;9.942;2024-03-23T11:02:02;15.35;;;6.18;;
33672;SDS011;20011;51.510;9.942;2024-03-23T11:04:36;14.73;;;6.20;;
33672;SDS011;20011;51.510;9.942;2024-03-23T11:07:48;16.10;;;5.78;;
33672;SDS011;20011;51.510;9.942;2024-03-23T11:09:56;11.63;;;5.72;;
33672;SDS011;20011;51.510;9.942;2024-03-23T11:14:48;13.95;;;6.03;;
33672;SDS011;20011;51.510;9.942;2024-03-23T11:17:23;11.02;;;4.43;;
33672;SDS011;20011;51.510;9.942;2024-03-23T11:25:12;12.80;;;4.57;;
33672;SDS011;20011;51.510;9.942;2024-03-23T11:27:43;11.40;;;4.38;;
33672;SDS011;20011;51.510;9.942;2024-03-23T11:30:17;9.10;;;2.97;;
33672;SDS011;20011;51.510;9.942;2024-03-23T11:32:49;8.57;;;2.80;;
33672;SDS011;20011;51.510;9.942;2024-03-23T11:35:36;7.78;;;3.10;;
33672;SDS011;20011;51.510;9.942;2024-03-23T11:38:04;5.70;;;2.65;;
33672;SDS011;20011;51.510;9.942;2024-03-23T11:40:35;6.38;;;2.42;;
33672;SDS011;20011;51.510;9.942;2024-03-23T11:43:03;9.52;;;2.30;;
33672;SDS011;20011;51.510;9.942;2024-03-23T11:45:34;5.45;;;2.63;;
33672;SDS011;20011;51.510;9.942;2024-03-23T11:48:11;6.87;;;2.60;;
33672;SDS011;20011;51.510;9.942;2024-03-23T11:50:43;6.38;;;2.53;;
33672;SDS011;20011;51.510;9.942;2024-03-23T11:53:14;5.50;;;2.17;;
33672;SDS011;20011;51.510;9.942;2024-03-23T11:58:18;4.25;;;2.03;;
33672;SDS011;20011;51.510;9.942;2024-03-23T12:00:51;4.57;;;1.77;;
33672;SDS011;20011;51.510;9.942;2024-03-23T12:03:21;3.80;;;2.25;;
33672;SDS011;20011;51.510;9.942;2024-03-23T12:05:54;3.60;;;2.17;;
33672;SDS011;20011;51.510;9.942;2024-03-23T12:08:25;5.00;;;2.53;;
33672;SDS011;20011;51.510;9.942;2024-03-23T12:11:10;5.50;;;2.80;;
33672;SDS011;20011;51.510;9.942;2024-03-23T12:13:39;5.38;;;3.10;;
33672;SDS011;20011;51.510;9.942;2024-03-23T12:18:34;5.60;;;3.33;;
33672;SDS011;20011;51.510;9.942;2024-03-23T12:21:00;6.13;;;2.30;;
33672;SDS011;20011;51.510;9.942;2024-03-23T12:23:26;5.72;;;3.28;;
33672;SDS011;20011;51.510;9.942;2024-03-23T12:25:52;6.15;;;2.97;;
33672;SDS011;20011;51.510;9.942;2024-03-23T12:28:18;5.35;;;2.97;;
33672;SDS011;20011;51.510;9.942;2024-03-23T12:30:44;4.53;;;2.42;;
33672;SDS011;20011;51.510;9.942;2024-03-23T12:33:10;5.27;;;2.63;;
33672;SDS011;20011;51.510;9.942;2024-03-23T12:35:36;5.67;;;2.77;;
33672;SDS011;20011;51.510;9.942;2024-03-23T12:38:03;5.13;;;2.30;;
33672;SDS011;20011;51.510;9.942;2024-03-23T12:40:29;5.50;;;2.45;;
33672;SDS011;20011;51.510;9.942;2024-03-23T12:42:55;6.57;;;2.70;;
33672;SDS011;20011;51.510;9.942;2024-03-23T12:45:24;4.53;;;2.08;;
33672;SDS011;20011;51.510;9.942;2024-03-23T12:47:51;5.03;;;1.93;;
33672;SDS011;20011;51.510;9.942;2024-03-23T12:50:20;7.30;;;1.75;;
33672;SDS011;20011;51.510;9.942;2024-03-23T12:52:46;5.57;;;2.55;;
33672;SDS011;20011;51.510;9.942;2024-03-23T12:55:13;6.13;;;2.10;;
33672;SDS011;20011;51.510;9.942;2024-03-23T12:57:42;4.75;;;1.83;;
33672;SDS011;20011;51.510;9.942;2024-03-23T13:00:08;3.95;;;1.77;;
33672;SDS011;20011;51.510;9.942;2024-03-23T13:02:38;4.82;;;1.90;;
33672;SDS011;20011;51.510;9.942;2024-03-23T13:05:04;4.43;;;1.73;;
33672;SDS011;20011;51.510;9.942;2024-03-23T13:07:31;4.95;;;2.15;;
33672;SDS011;20011;51.510;9.942;2024-03-23T13:09:56;4.93;;;2.40;;
33672;SDS011;20011;51.510;9.942;2024-03-23T13:12:23;5.22;;;2.20;;
33672;SDS011;20011;51.510;9.942;2024-03-23T13:14:49;5.03;;;2.40;;
33672;SDS011;20011;51.510;9.942;2024-03-23T13:17:15;3.40;;;1.93;;
33672;SDS011;20011;51.510;9.942;2024-03-23T13:19:40;4.90;;;2.37;;
33672;SDS011;20011;51.510;9.942;2024-03-23T13:22:07;7.47;;;2.60;;
33672;SDS011;20011;51.510;9.942;2024-03-23T13:24:33;6.27;;;2.40;;
33672;SDS011;20011;51.510;9.942;2024-03-23T13:26:59;5.60;;;2.00;;
33672;SDS011;20011;51.510;9.942;2024-03-23T13:29:25;4.60;;;2.40;;
33672;SDS011;20011;51.510;9.942;2024-03-23T13:31:51;4.78;;;2.40;;
33672;SDS011;20011;51.510;9.942;2024-03-23T13:34:18;5.65;;;2.40;;
33672;SDS011;20011;51.510;9.942;2024-03-23T13:36:45;5.30;;;2.30;;
33672;SDS011;20011;51.510;9.942;2024-03-23T13:39:12;4.75;;;2.10;;
33672;SDS011;20011;51.510;9.942;2024-03-23T13:44:09;4.77;;;2.17;;
33672;SDS011;20011;51.510;9.942;2024-03-23T13:46:36;5.85;;;1.83;;
33672;SDS011;20011;51.510;9.942;2024-03-23T13:49:05;3.60;;;1.90;;
33672;SDS011;20011;51.510;9.942;2024-03-23T13:54:24;6.78;;;2.30;;
33672;SDS011;20011;51.510;9.942;2024-03-23T13:56:53;4.95;;;1.70;;
33672;SDS011;20011;51.510;9.942;2024-03-23T13:59:21;4.50;;;1.88;;
33672;SDS011;20011;51.510;9.942;2024-03-23T14:01:48;7.00;;;2.10;;
33672;SDS011;20011;51.510;9.942;2024-03-23T14:04:16;7.40;;;1.80;;
33672;SDS011;20011;51.510;9.942;2024-03-23T14:06:42;5.33;;;2.13;;
33672;SDS011;20011;51.510;9.942;2024-03-23T14:09:11;2.13;;;1.17;;
33672;SDS011;20011;51.510;9.942;2024-03-23T14:11:37;2.22;;;1.15;;
33672;SDS011;20011;51.510;9.942;2024-03-23T14:14:03;3.30;;;1.08;;
33672;SDS011;20011;51.510;9.942;2024-03-23T14:16:30;3.15;;;0.90;;
33672;SDS011;20011;51.510;9.942;2024-03-23T14:18:56;4.85;;;1.40;;
33672;SDS011;20011;51.510;9.942;2024-03-23T14:21:22;2.78;;;1.00;;
33672;SDS011;20011;51.510;9.942;2024-03-23T14:23:49;4.10;;;1.40;;
33672;SDS011;20011;51.510;9.942;2024-03-23T14:26:15;2.30;;;0.98;;
33672;SDS011;20011;51.510;9.942;2024-03-23T14:28:41;5.28;;;0.95;;
33672;SDS011;20011;51.510;9.942;2024-03-23T14:31:07;3.17;;;1.25;;
33672;SDS011;20011;51.510;9.942;2024-03-23T14:33:36;3.20;;;0.93;;
33672;SDS011;20011;51.510;9.942;2024-03-23T14:36:03;3.03;;;1.20;;
33672;SDS011;20011;51.510;9.942;2024-03-23T14:38:29;2.35;;;1.10;;
33672;SDS011;20011;51.510;9.942;2024-03-23T14:41:01;2.10;;;1.00;;
33672;SDS011;20011;51.510;9.942;2024-03-23T14:43:28;4.75;;;0.80;;
33672;SDS011;20011;51.510;9.942;2024-03-23T14:46:07;2.97;;;0.80;;
33672;SDS011;20011;51.510;9.942;2024-03-23T14:48:34;3.92;;;0.90;;
33672;SDS011;20011;51.510;9.942;2024-03-23T14:51:01;2.42;;;0.85;;
33672;SDS011;20011;51.510;9.942;2024-03-23T14:53:30;1.42;;;0.75;;
33672;SDS011;20011;51.510;9.942;2024-03-23T14:55:57;2.88;;;1.38;;
33672;SDS011;20011;51.510;9.942;2024-03-23T14:58:23;3.97;;;1.77;;
33672;SDS011;20011;51.510;9.942;2024-03-23T15:00:50;2.58;;;1.10;;
33672;SDS011;20011;51.510;9.942;2024-03-23T15:03:17;3.42;;;1.10;;
33672;SDS011;20011;51.510;9.942;2024-03-23T15:05:53;4.30;;;1.48;;
33672;SDS011;20011;51.510;9.942;2024-03-23T15:08:23;6.38;;;1.60;;
33672;SDS011;20011;51.510;9.942;2024-03-23T15:10:49;4.00;;;1.30;;
33672;SDS011;20011;51.510;9.942;2024-03-23T15:13:16;4.65;;;1.50;;
33672;SDS011;20011;51.510;9.942;2024-03-23T15:15:43;3.72;;;1.40;;
33672;SDS011;20011;51.510;9.942;2024-03-23T15:18:13;3.78;;;1.38;;
33672;SDS011;20011;51.510;9.942;2024-03-23T15:20:40;4.15;;;1.40;;
33672;SDS011;20011;51.510;9.942;2024-03-23T15:23:07;2.20;;;1.17;;
33672;SDS011;20011;51.510;9.942;2024-03-23T15:25:33;4.50;;;1.45;;
33672;SDS011;20011;51.510;9.942;2024-03-23T15:27:59;3.05;;;1.40;;
33672;SDS011;20011;51.510;9.942;2024-03-23T15:30:28;4.70;;;1.40;;
33672;SDS011;20011;51.510;9.942;2024-03-23T15:32:55;3.67;;;1.48;;
33672;SDS011;20011;51.510;9.942;2024-03-23T15:35:20;4.13;;;1.30;;
33672;SDS011;20011;51.510;9.942;2024-03-23T15:37:49;3.97;;;1.42;;
33672;SDS011;20011;51.510;9.942;2024-03-23T15:40:15;4.75;;;1.50;;
33672;SDS011;20011;51.510;9.942;2024-03-23T15:42:41;4.47;;;1.20;;
33672;SDS011;20011;51.510;9.942;2024-03-23T15:45:07;4.13;;;1.20;;
33672;SDS011;20011;51.510;9.942;2024-03-23T15:47:35;4.55;;;1.08;;
33672;SDS011;20011;51.510;9.942;2024-03-23T15:50:01;3.42;;;0.98;;
33672;SDS011;20011;51.510;9.942;2024-03-23T15:52:29;4.47;;;1.55;;
33672;SDS011;20011;51.510;9.942;2024-03-23T15:54:54;2.83;;;0.90;;
33672;SDS011;20011;51.510;9.942;2024-03-23T15:57:23;3.43;;;1.27;;
33672;SDS011;20011;51.510;9.942;2024-03-23T15:59:49;2.55;;;1.00;;